BZRK1: S Cottonwood River nr Bazarr KS

                                SHEF ID:       BZRK1     SF COTTONWOOD R NR BAZAAR, KS
STATION TYPE:

PRECIP PRECIP(A) STAGE RIV-FLOW BAT-LOAD
in in ft cfs volt
Ccp-Rev Ccp-Rev Ccp-Rev Ccp-Rev Ccp-Rev
(America/Chicago)
11/22 00:00 0.00 ---- 11.41 1000 11.91
11/22 01:00 0.00 ---- 11.32 960 11.90
11/22 02:00 0.00 ---- 11.23 920 11.91
11/22 03:00 0.00 ---- 11.12 873 11.91
11/22 04:00 0.00 ---- 11.03 834 11.91
11/22 05:00 0.00 ---- 10.95 800 11.90
11/22 06:00 0.00 ---- 10.86 763 11.91
11/22 07:00 0.00 ---- 10.78 730 11.91
11/22 08:00 0.00 ---- 10.72 705 11.96
11/22 09:00 0.00 ---- 10.65 677 12.68
11/22 10:00 0.00 ---- 10.59 653 13.32
11/22 11:00 0.01 ---- 10.53 630 13.51
11/22 12:00 0.00 ---- 10.45 603 13.53
11/22 13:00 0.00 ---- 10.37 580 13.57
11/22 14:00 0.00 ---- 10.26 548 13.56
11/22 15:00 0.00 ---- 10.15 517 13.53
11/22 16:00 0.00 ---- 10.06 491 13.62
11/22 17:00 0.00 ---- 9.99 464 13.32
11/22 18:00 0.00 ---- 9.90 426 12.50
11/22 19:00 0.00 ---- 9.85 407 12.22
11/22 20:00 0.00 ---- 9.79 385 12.18
11/22 21:00 0.00 ---- 9.74 368 12.14
11/22 22:00 0.00 ---- 9.69 353 12.13
11/22 23:00 0.00 ---- 9.63 338 12.11
Data processed at Sun 23Nov2025 05:44 GMT

NOTICE: If you are parsing this page

Please convert to using our Data API. Starting January 1st, 2026 we will be migrating to: https://water.usace.army.mil with modern pages rendered in JavaScript. You will no longer be able to scrape this page! CWMSDataAPI (CDA)

Timeseries IDs (TSIDs)

TSIDs used from left to right in the data table
BAZA.Precip-Inc.Total.1Hour.1Hour.Ccp-Rev
BAZA.Precip-Inc Alt.Total.1Hour.1Hour.Ccp-Rev
BAZA.Stage.Inst.1Hour.0.Ccp-Rev
BAZA.Flow.Inst.1Hour.0.Ccp-Rev
BAZA.Volt-Battery Load.Inst.1Hour.0.Ccp-Rev

                            

All information presented herein is the property of the government of the United States of America and may be revised or deleted at any time without prior notice. Dissemination of this information without the expressed written consent of the Public Affairs Office, Tulsa District U.S. Army Corps of Engineers is strictly prohibited. These data are gathered electronically and, as presented, have NOT undergone any form of quality control. These data are NOT guaranteed to be valid or correct.